sensor_id;sensor_type;location;lat;lon;timestamp;P1;durP1;ratioP1;P2;durP2;ratioP2
14394;SDS011;7282;49.204;10.652;2022-10-16T00:00:47;3.53;;;3.00;;
14394;SDS011;7282;49.204;10.652;2022-10-16T00:03:14;3.47;;;3.10;;
14394;SDS011;7282;49.204;10.652;2022-10-16T00:05:41;3.77;;;3.40;;
14394;SDS011;7282;49.204;10.652;2022-10-16T00:08:09;3.53;;;3.23;;
14394;SDS011;7282;49.204;10.652;2022-10-16T00:10:36;4.20;;;3.47;;
14394;SDS011;7282;49.204;10.652;2022-10-16T00:13:03;3.67;;;3.30;;
14394;SDS011;7282;49.204;10.652;2022-10-16T00:15:30;3.60;;;3.30;;
14394;SDS011;7282;49.204;10.652;2022-10-16T00:17:58;4.03;;;3.47;;
14394;SDS011;7282;49.204;10.652;2022-10-16T00:20:25;4.03;;;3.17;;
14394;SDS011;7282;49.204;10.652;2022-10-16T00:22:52;3.40;;;3.00;;
14394;SDS011;7282;49.204;10.652;2022-10-16T00:25:21;3.23;;;2.93;;
14394;SDS011;7282;49.204;10.652;2022-10-16T00:27:48;3.20;;;2.90;;
14394;SDS011;7282;49.204;10.652;2022-10-16T00:30:14;3.50;;;3.20;;
14394;SDS011;7282;49.204;10.652;2022-10-16T00:32:41;3.43;;;3.13;;
14394;SDS011;7282;49.204;10.652;2022-10-16T00:35:08;3.53;;;3.23;;
14394;SDS011;7282;49.204;10.652;2022-10-16T00:37:35;3.20;;;3.00;;
14394;SDS011;7282;49.204;10.652;2022-10-16T00:40:01;3.67;;;3.37;;
14394;SDS011;7282;49.204;10.652;2022-10-16T00:42:28;4.87;;;3.30;;
14394;SDS011;7282;49.204;10.652;2022-10-16T00:44:56;3.90;;;3.50;;
14394;SDS011;7282;49.204;10.652;2022-10-16T00:47:27;3.30;;;3.00;;
14394;SDS011;7282;49.204;10.652;2022-10-16T00:50:00;3.30;;;3.10;;
14394;SDS011;7282;49.204;10.652;2022-10-16T00:52:23;3.73;;;3.20;;
14394;SDS011;7282;49.204;10.652;2022-10-16T00:54:50;3.30;;;3.10;;
14394;SDS011;7282;49.204;10.652;2022-10-16T00:57:18;3.57;;;3.00;;
14394;SDS011;7282;49.204;10.652;2022-10-16T00:59:45;3.53;;;3.10;;
14394;SDS011;7282;49.204;10.652;2022-10-16T01:02:13;4.03;;;3.10;;
14394;SDS011;7282;49.204;10.652;2022-10-16T01:04:41;3.30;;;3.00;;
14394;SDS011;7282;49.204;10.652;2022-10-16T01:09:55;3.60;;;3.30;;
14394;SDS011;7282;49.204;10.652;2022-10-16T01:12:31;4.10;;;3.43;;
14394;SDS011;7282;49.204;10.652;2022-10-16T01:14:59;3.70;;;3.40;;
14394;SDS011;7282;49.204;10.652;2022-10-16T01:17:34;4.30;;;3.20;;
14394;SDS011;7282;49.204;10.652;2022-10-16T01:20:10;3.67;;;3.33;;
14394;SDS011;7282;49.204;10.652;2022-10-16T01:22:43;3.70;;;3.40;;
14394;SDS011;7282;49.204;10.652;2022-10-16T01:25:05;4.10;;;3.70;;
14394;SDS011;7282;49.204;10.652;2022-10-16T01:27:33;3.87;;;3.03;;
14394;SDS011;7282;49.204;10.652;2022-10-16T01:32:48;3.23;;;2.93;;
14394;SDS011;7282;49.204;10.652;2022-10-16T01:35:16;3.17;;;2.93;;
14394;SDS011;7282;49.204;10.652;2022-10-16T01:37:51;4.23;;;2.63;;
14394;SDS011;7282;49.204;10.652;2022-10-16T01:40:18;4.10;;;3.17;;
14394;SDS011;7282;49.204;10.652;2022-10-16T01:42:50;3.77;;;2.90;;
14394;SDS011;7282;49.204;10.652;2022-10-16T01:45:17;3.67;;;2.90;;
14394;SDS011;7282;49.204;10.652;2022-10-16T01:47:45;2.93;;;2.63;;
14394;SDS011;7282;49.204;10.652;2022-10-16T01:50:13;3.20;;;2.90;;
14394;SDS011;7282;49.204;10.652;2022-10-16T01:52:41;3.30;;;3.07;;
14394;SDS011;7282;49.204;10.652;2022-10-16T01:55:09;2.93;;;2.67;;
14394;SDS011;7282;49.204;10.652;2022-10-16T01:57:37;3.17;;;2.80;;
14394;SDS011;7282;49.204;10.652;2022-10-16T02:00:07;2.43;;;2.23;;
14394;SDS011;7282;49.204;10.652;2022-10-16T02:02:33;3.33;;;2.80;;
14394;SDS011;7282;49.204;10.652;2022-10-16T02:05:15;3.57;;;3.00;;
14394;SDS011;7282;49.204;10.652;2022-10-16T02:07:42;2.47;;;2.27;;
14394;SDS011;7282;49.204;10.652;2022-10-16T02:10:08;3.33;;;2.87;;
14394;SDS011;7282;49.204;10.652;2022-10-16T02:12:36;2.90;;;2.70;;
14394;SDS011;7282;49.204;10.652;2022-10-16T02:15:05;2.83;;;2.63;;
14394;SDS011;7282;49.204;10.652;2022-10-16T02:17:32;2.60;;;2.40;;
14394;SDS011;7282;49.204;10.652;2022-10-16T02:19:59;2.60;;;2.40;;
14394;SDS011;7282;49.204;10.652;2022-10-16T02:22:36;2.47;;;2.30;;
14394;SDS011;7282;49.204;10.652;2022-10-16T02:25:10;3.20;;;2.70;;
14394;SDS011;7282;49.204;10.652;2022-10-16T02:30:33;3.47;;;2.93;;
14394;SDS011;7282;49.204;10.652;2022-10-16T02:33:01;3.70;;;2.80;;
14394;SDS011;7282;49.204;10.652;2022-10-16T02:35:29;2.80;;;2.60;;
14394;SDS011;7282;49.204;10.652;2022-10-16T02:37:57;2.80;;;2.60;;
14394;SDS011;7282;49.204;10.652;2022-10-16T02:40:24;3.87;;;2.87;;
14394;SDS011;7282;49.204;10.652;2022-10-16T02:42:51;2.83;;;2.63;;
14394;SDS011;7282;49.204;10.652;2022-10-16T02:45:18;4.47;;;3.10;;
14394;SDS011;7282;49.204;10.652;2022-10-16T02:47:45;3.47;;;2.70;;
14394;SDS011;7282;49.204;10.652;2022-10-16T02:50:12;4.80;;;3.10;;
14394;SDS011;7282;49.204;10.652;2022-10-16T02:52:39;3.40;;;3.10;;
14394;SDS011;7282;49.204;10.652;2022-10-16T02:55:06;3.23;;;2.90;;
14394;SDS011;7282;49.204;10.652;2022-10-16T02:57:32;3.67;;;3.30;;
14394;SDS011;7282;49.204;10.652;2022-10-16T02:59:59;3.33;;;3.00;;
14394;SDS011;7282;49.204;10.652;2022-10-16T03:02:26;4.13;;;3.50;;
14394;SDS011;7282;49.204;10.652;2022-10-16T03:04:53;3.33;;;3.00;;
14394;SDS011;7282;49.204;10.652;2022-10-16T03:07:19;3.77;;;3.00;;
14394;SDS011;7282;49.204;10.652;2022-10-16T03:09:46;3.30;;;3.00;;
14394;SDS011;7282;49.204;10.652;2022-10-16T03:12:13;3.83;;;3.43;;
14394;SDS011;7282;49.204;10.652;2022-10-16T03:14:40;3.50;;;3.20;;
14394;SDS011;7282;49.204;10.652;2022-10-16T03:17:07;3.50;;;3.20;;
14394;SDS011;7282;49.204;10.652;2022-10-16T03:19:33;3.40;;;3.10;;
14394;SDS011;7282;49.204;10.652;2022-10-16T03:22:01;2.70;;;2.50;;
14394;SDS011;7282;49.204;10.652;2022-10-16T03:24:28;3.40;;;3.10;;
14394;SDS011;7282;49.204;10.652;2022-10-16T03:26:55;3.90;;;3.43;;
14394;SDS011;7282;49.204;10.652;2022-10-16T03:29:21;4.30;;;3.30;;
14394;SDS011;7282;49.204;10.652;2022-10-16T03:31:48;3.77;;;3.47;;
14394;SDS011;7282;49.204;10.652;2022-10-16T03:34:15;5.13;;;3.83;;
14394;SDS011;7282;49.204;10.652;2022-10-16T03:36:42;3.90;;;3.60;;
14394;SDS011;7282;49.204;10.652;2022-10-16T03:39:08;4.63;;;4.00;;
14394;SDS011;7282;49.204;10.652;2022-10-16T03:41:35;4.27;;;3.50;;
14394;SDS011;7282;49.204;10.652;2022-10-16T03:44:02;3.70;;;3.40;;
14394;SDS011;7282;49.204;10.652;2022-10-16T03:46:29;4.20;;;3.80;;
14394;SDS011;7282;49.204;10.652;2022-10-16T03:48:55;4.90;;;3.70;;
14394;SDS011;7282;49.204;10.652;2022-10-16T03:51:22;4.80;;;3.60;;
14394;SDS011;7282;49.204;10.652;2022-10-16T03:53:49;3.90;;;3.50;;
14394;SDS011;7282;49.204;10.652;2022-10-16T03:56:15;6.63;;;3.80;;
14394;SDS011;7282;49.204;10.652;2022-10-16T03:58:42;4.53;;;3.73;;
14394;SDS011;7282;49.204;10.652;2022-10-16T04:01:09;4.47;;;3.97;;
14394;SDS011;7282;49.204;10.652;2022-10-16T04:03:35;3.80;;;3.30;;
14394;SDS011;7282;49.204;10.652;2022-10-16T04:06:02;3.63;;;3.33;;
14394;SDS011;7282;49.204;10.652;2022-10-16T04:08:29;3.60;;;3.30;;
14394;SDS011;7282;49.204;10.652;2022-10-16T04:10:55;4.57;;;4.10;;
14394;SDS011;7282;49.204;10.652;2022-10-16T04:13:22;5.43;;;3.40;;
14394;SDS011;7282;49.204;10.652;2022-10-16T04:15:49;4.50;;;3.53;;
14394;SDS011;7282;49.204;10.652;2022-10-16T04:18:16;3.20;;;3.00;;
14394;SDS011;7282;49.204;10.652;2022-10-16T04:20:42;6.90;;;3.70;;
14394;SDS011;7282;49.204;10.652;2022-10-16T04:23:09;3.57;;;3.27;;
14394;SDS011;7282;49.204;10.652;2022-10-16T04:25:36;3.60;;;3.30;;
14394;SDS011;7282;49.204;10.652;2022-10-16T04:28:02;3.77;;;3.30;;
14394;SDS011;7282;49.204;10.652;2022-10-16T04:30:29;4.07;;;3.73;;
14394;SDS011;7282;49.204;10.652;2022-10-16T04:32:56;4.00;;;3.70;;
14394;SDS011;7282;49.204;10.652;2022-10-16T04:35:22;3.87;;;3.57;;
14394;SDS011;7282;49.204;10.652;2022-10-16T04:37:49;3.50;;;3.20;;
14394;SDS011;7282;49.204;10.652;2022-10-16T04:40:16;4.40;;;3.87;;
14394;SDS011;7282;49.204;10.652;2022-10-16T04:42:43;3.80;;;3.50;;
14394;SDS011;7282;49.204;10.652;2022-10-16T04:45:10;4.30;;;3.50;;
14394;SDS011;7282;49.204;10.652;2022-10-16T04:47:37;3.90;;;3.60;;
14394;SDS011;7282;49.204;10.652;2022-10-16T04:50:04;4.50;;;4.10;;
14394;SDS011;7282;49.204;10.652;2022-10-16T04:52:30;4.00;;;3.70;;
14394;SDS011;7282;49.204;10.652;2022-10-16T04:54:57;4.77;;;3.53;;
14394;SDS011;7282;49.204;10.652;2022-10-16T04:57:26;4.50;;;4.10;;
14394;SDS011;7282;49.204;10.652;2022-10-16T04:59:53;4.40;;;4.00;;
14394;SDS011;7282;49.204;10.652;2022-10-16T05:02:20;4.80;;;4.30;;
14394;SDS011;7282;49.204;10.652;2022-10-16T05:04:46;3.93;;;3.63;;
14394;SDS011;7282;49.204;10.652;2022-10-16T05:07:13;4.27;;;3.87;;
14394;SDS011;7282;49.204;10.652;2022-10-16T05:09:40;4.07;;;3.67;;
14394;SDS011;7282;49.204;10.652;2022-10-16T05:12:06;4.87;;;4.37;;
14394;SDS011;7282;49.204;10.652;2022-10-16T05:14:33;4.07;;;3.67;;
14394;SDS011;7282;49.204;10.652;2022-10-16T05:17:00;3.67;;;3.37;;
14394;SDS011;7282;49.204;10.652;2022-10-16T05:19:27;3.57;;;3.27;;
14394;SDS011;7282;49.204;10.652;2022-10-16T05:21:53;3.60;;;3.30;;
14394;SDS011;7282;49.204;10.652;2022-10-16T05:24:20;4.93;;;3.80;;
14394;SDS011;7282;49.204;10.652;2022-10-16T05:26:47;3.97;;;3.63;;
14394;SDS011;7282;49.204;10.652;2022-10-16T05:29:14;4.00;;;3.60;;
14394;SDS011;7282;49.204;10.652;2022-10-16T05:31:40;3.77;;;3.47;;
14394;SDS011;7282;49.204;10.652;2022-10-16T05:34:07;4.60;;;4.23;;
14394;SDS011;7282;49.204;10.652;2022-10-16T05:36:34;4.60;;;4.20;;
14394;SDS011;7282;49.204;10.652;2022-10-16T05:39:01;5.67;;;4.47;;
14394;SDS011;7282;49.204;10.652;2022-10-16T05:41:28;5.63;;;5.13;;
14394;SDS011;7282;49.204;10.652;2022-10-16T05:43:54;4.70;;;4.30;;
14394;SDS011;7282;49.204;10.652;2022-10-16T05:46:21;4.47;;;4.13;;
14394;SDS011;7282;49.204;10.652;2022-10-16T05:48:48;4.27;;;3.87;;
14394;SDS011;7282;49.204;10.652;2022-10-16T05:51:14;4.70;;;3.90;;
14394;SDS011;7282;49.204;10.652;2022-10-16T05:53:41;3.90;;;3.60;;
14394;SDS011;7282;49.204;10.652;2022-10-16T05:56:09;3.93;;;3.50;;
14394;SDS011;7282;49.204;10.652;2022-10-16T05:58:37;4.07;;;3.70;;
14394;SDS011;7282;49.204;10.652;2022-10-16T06:01:04;4.33;;;3.90;;
14394;SDS011;7282;49.204;10.652;2022-10-16T06:03:33;4.40;;;4.10;;
14394;SDS011;7282;49.204;10.652;2022-10-16T06:06:06;4.33;;;4.03;;
14394;SDS011;7282;49.204;10.652;2022-10-16T06:08:28;4.80;;;4.40;;
14394;SDS011;7282;49.204;10.652;2022-10-16T06:11:05;3.90;;;3.60;;
14394;SDS011;7282;49.204;10.652;2022-10-16T06:13:24;5.60;;;4.10;;
14394;SDS011;7282;49.204;10.652;2022-10-16T06:15:50;5.63;;;4.30;;
14394;SDS011;7282;49.204;10.652;2022-10-16T06:18:17;5.33;;;4.43;;
14394;SDS011;7282;49.204;10.652;2022-10-16T06:20:44;5.27;;;4.00;;
14394;SDS011;7282;49.204;10.652;2022-10-16T06:23:10;4.40;;;4.03;;
14394;SDS011;7282;49.204;10.652;2022-10-16T06:25:37;3.90;;;3.60;;
14394;SDS011;7282;49.204;10.652;2022-10-16T06:28:04;4.10;;;3.80;;
14394;SDS011;7282;49.204;10.652;2022-10-16T06:30:30;4.00;;;3.70;;
14394;SDS011;7282;49.204;10.652;2022-10-16T06:32:57;3.70;;;3.40;;
14394;SDS011;7282;49.204;10.652;2022-10-16T06:35:24;3.67;;;3.37;;
14394;SDS011;7282;49.204;10.652;2022-10-16T06:37:52;3.20;;;2.97;;
14394;SDS011;7282;49.204;10.652;2022-10-16T06:40:19;3.73;;;3.43;;
14394;SDS011;7282;49.204;10.652;2022-10-16T06:42:45;5.00;;;3.73;;
14394;SDS011;7282;49.204;10.652;2022-10-16T06:45:12;4.53;;;4.13;;
14394;SDS011;7282;49.204;10.652;2022-10-16T06:47:39;3.90;;;3.60;;
14394;SDS011;7282;49.204;10.652;2022-10-16T06:50:06;4.47;;;4.07;;
14394;SDS011;7282;49.204;10.652;2022-10-16T06:52:33;4.03;;;3.63;;
14394;SDS011;7282;49.204;10.652;2022-10-16T06:55:00;4.10;;;3.80;;
14394;SDS011;7282;49.204;10.652;2022-10-16T06:57:28;3.93;;;3.63;;
14394;SDS011;7282;49.204;10.652;2022-10-16T06:59:55;3.73;;;3.40;;
14394;SDS011;7282;49.204;10.652;2022-10-16T07:02:22;4.10;;;3.60;;
14394;SDS011;7282;49.204;10.652;2022-10-16T07:04:48;3.90;;;3.60;;
14394;SDS011;7282;49.204;10.652;2022-10-16T07:07:15;3.50;;;3.20;;
14394;SDS011;7282;49.204;10.652;2022-10-16T07:09:42;3.37;;;3.07;;
14394;SDS011;7282;49.204;10.652;2022-10-16T07:12:08;3.77;;;3.13;;
14394;SDS011;7282;49.204;10.652;2022-10-16T07:14:35;3.00;;;2.80;;
14394;SDS011;7282;49.204;10.652;2022-10-16T07:17:02;3.20;;;3.00;;
14394;SDS011;7282;49.204;10.652;2022-10-16T07:19:29;3.90;;;3.10;;
14394;SDS011;7282;49.204;10.652;2022-10-16T07:21:55;3.97;;;3.60;;
14394;SDS011;7282;49.204;10.652;2022-10-16T07:24:23;3.60;;;3.30;;
14394;SDS011;7282;49.204;10.652;2022-10-16T07:26:50;3.30;;;3.10;;
14394;SDS011;7282;49.204;10.652;2022-10-16T07:29:18;3.50;;;3.20;;
14394;SDS011;7282;49.204;10.652;2022-10-16T07:31:46;3.00;;;2.80;;
14394;SDS011;7282;49.204;10.652;2022-10-16T07:34:13;3.93;;;3.53;;
14394;SDS011;7282;49.204;10.652;2022-10-16T07:36:40;3.47;;;3.20;;
14394;SDS011;7282;49.204;10.652;2022-10-16T07:39:07;3.70;;;3.40;;
14394;SDS011;7282;49.204;10.652;2022-10-16T07:41:34;3.27;;;2.97;;
14394;SDS011;7282;49.204;10.652;2022-10-16T07:44:03;3.50;;;3.20;;
14394;SDS011;7282;49.204;10.652;2022-10-16T07:46:35;3.57;;;3.27;;
14394;SDS011;7282;49.204;10.652;2022-10-16T07:48:59;3.30;;;3.10;;
14394;SDS011;7282;49.204;10.652;2022-10-16T07:51:26;3.30;;;3.00;;
14394;SDS011;7282;49.204;10.652;2022-10-16T07:53:53;3.10;;;2.90;;
14394;SDS011;7282;49.204;10.652;2022-10-16T07:56:20;5.10;;;3.20;;
14394;SDS011;7282;49.204;10.652;2022-10-16T07:58:47;4.07;;;3.20;;
14394;SDS011;7282;49.204;10.652;2022-10-16T08:01:15;3.90;;;3.13;;
14394;SDS011;7282;49.204;10.652;2022-10-16T08:03:43;3.40;;;3.10;;
14394;SDS011;7282;49.204;10.652;2022-10-16T08:06:10;3.20;;;3.00;;
14394;SDS011;7282;49.204;10.652;2022-10-16T08:08:37;3.37;;;3.07;;
14394;SDS011;7282;49.204;10.652;2022-10-16T08:11:03;3.50;;;2.93;;
14394;SDS011;7282;49.204;10.652;2022-10-16T08:13:30;3.30;;;3.00;;
14394;SDS011;7282;49.204;10.652;2022-10-16T08:15:57;3.27;;;3.03;;
14394;SDS011;7282;49.204;10.652;2022-10-16T08:18:24;3.10;;;2.80;;
14394;SDS011;7282;49.204;10.652;2022-10-16T08:20:58;3.67;;;2.97;;
14394;SDS011;7282;49.204;10.652;2022-10-16T08:23:26;3.13;;;2.57;;
14394;SDS011;7282;49.204;10.652;2022-10-16T08:25:53;2.90;;;2.70;;
14394;SDS011;7282;49.204;10.652;2022-10-16T08:28:20;2.97;;;2.67;;
14394;SDS011;7282;49.204;10.652;2022-10-16T08:30:47;3.57;;;3.00;;
14394;SDS011;7282;49.204;10.652;2022-10-16T08:33:13;2.93;;;2.73;;
14394;SDS011;7282;49.204;10.652;2022-10-16T08:35:40;3.17;;;2.77;;
14394;SDS011;7282;49.204;10.652;2022-10-16T08:38:07;3.33;;;2.77;;
14394;SDS011;7282;49.204;10.652;2022-10-16T08:40:34;2.83;;;2.60;;
14394;SDS011;7282;49.204;10.652;2022-10-16T08:48:14;2.60;;;2.40;;
14394;SDS011;7282;49.204;10.652;2022-10-16T08:50:38;2.80;;;2.60;;
14394;SDS011;7282;49.204;10.652;2022-10-16T08:53:05;4.57;;;3.00;;
14394;SDS011;7282;49.204;10.652;2022-10-16T08:55:43;2.93;;;2.73;;
14394;SDS011;7282;49.204;10.652;2022-10-16T08:58:17;3.20;;;2.43;;
14394;SDS011;7282;49.204;10.652;2022-10-16T09:00:46;3.03;;;2.73;;
14394;SDS011;7282;49.204;10.652;2022-10-16T09:03:22;2.67;;;2.30;;
14394;SDS011;7282;49.204;10.652;2022-10-16T09:08:31;3.80;;;2.90;;
14394;SDS011;7282;49.204;10.652;2022-10-16T09:11:12;3.00;;;2.80;;
14394;SDS011;7282;49.204;10.652;2022-10-16T09:21:14;2.90;;;2.50;;
14394;SDS011;7282;49.204;10.652;2022-10-16T09:23:41;3.70;;;2.53;;
14394;SDS011;7282;49.204;10.652;2022-10-16T09:26:11;2.83;;;2.40;;
14394;SDS011;7282;49.204;10.652;2022-10-16T09:28:41;2.60;;;2.40;;
14394;SDS011;7282;49.204;10.652;2022-10-16T09:31:18;2.50;;;2.17;;
14394;SDS011;7282;49.204;10.652;2022-10-16T09:33:48;2.30;;;2.20;;
14394;SDS011;7282;49.204;10.652;2022-10-16T09:36:14;2.70;;;2.50;;
14394;SDS011;7282;49.204;10.652;2022-10-16T09:38:41;2.70;;;2.50;;
14394;SDS011;7282;49.204;10.652;2022-10-16T09:41:21;2.57;;;2.37;;
14394;SDS011;7282;49.204;10.652;2022-10-16T09:43:49;2.70;;;2.50;;
14394;SDS011;7282;49.204;10.652;2022-10-16T09:46:21;3.00;;;2.30;;
14394;SDS011;7282;49.204;10.652;2022-10-16T09:48:49;2.67;;;2.47;;
14394;SDS011;7282;49.204;10.652;2022-10-16T09:51:20;4.50;;;2.70;;
14394;SDS011;7282;49.204;10.652;2022-10-16T09:53:47;2.50;;;2.30;;
14394;SDS011;7282;49.204;10.652;2022-10-16T09:56:21;2.93;;;2.53;;
14394;SDS011;7282;49.204;10.652;2022-10-16T09:58:52;2.83;;;2.57;;
14394;SDS011;7282;49.204;10.652;2022-10-16T10:01:19;3.17;;;2.40;;
14394;SDS011;7282;49.204;10.652;2022-10-16T10:03:46;3.07;;;2.60;;
14394;SDS011;7282;49.204;10.652;2022-10-16T10:06:18;3.73;;;2.47;;
14394;SDS011;7282;49.204;10.652;2022-10-16T10:09:05;3.50;;;2.50;;
14394;SDS011;7282;49.204;10.652;2022-10-16T10:11:38;3.80;;;2.27;;
14394;SDS011;7282;49.204;10.652;2022-10-16T10:16:33;3.40;;;2.40;;
14394;SDS011;7282;49.204;10.652;2022-10-16T10:19:00;5.10;;;2.10;;
14394;SDS011;7282;49.204;10.652;2022-10-16T10:21:27;4.73;;;2.40;;
14394;SDS011;7282;49.204;10.652;2022-10-16T10:23:56;3.20;;;2.17;;
14394;SDS011;7282;49.204;10.652;2022-10-16T10:26:24;4.93;;;2.33;;
14394;SDS011;7282;49.204;10.652;2022-10-16T10:29:04;2.30;;;2.10;;
14394;SDS011;7282;49.204;10.652;2022-10-16T10:31:33;2.40;;;2.20;;
14394;SDS011;7282;49.204;10.652;2022-10-16T10:34:04;2.80;;;2.13;;
14394;SDS011;7282;49.204;10.652;2022-10-16T10:36:28;5.50;;;2.60;;
14394;SDS011;7282;49.204;10.652;2022-10-16T10:38:59;3.67;;;2.40;;
14394;SDS011;7282;49.204;10.652;2022-10-16T10:41:30;3.00;;;2.17;;
14394;SDS011;7282;49.204;10.652;2022-10-16T10:43:57;3.27;;;2.13;;
14394;SDS011;7282;49.204;10.652;2022-10-16T10:46:26;2.67;;;2.47;;
14394;SDS011;7282;49.204;10.652;2022-10-16T10:48:54;4.03;;;2.40;;
14394;SDS011;7282;49.204;10.652;2022-10-16T10:51:26;4.17;;;2.40;;
14394;SDS011;7282;49.204;10.652;2022-10-16T10:59:28;2.47;;;2.20;;
14394;SDS011;7282;49.204;10.652;2022-10-16T11:01:56;4.80;;;2.40;;
14394;SDS011;7282;49.204;10.652;2022-10-16T11:04:32;2.30;;;2.10;;
14394;SDS011;7282;49.204;10.652;2022-10-16T11:07:00;3.10;;;2.40;;
14394;SDS011;7282;49.204;10.652;2022-10-16T11:09:25;2.30;;;2.10;;
14394;SDS011;7282;49.204;10.652;2022-10-16T11:11:56;4.83;;;2.27;;
14394;SDS011;7282;49.204;10.652;2022-10-16T11:14:26;2.57;;;2.10;;
14394;SDS011;7282;49.204;10.652;2022-10-16T11:16:53;2.07;;;1.97;;
14394;SDS011;7282;49.204;10.652;2022-10-16T11:19:30;2.70;;;2.40;;
14394;SDS011;7282;49.204;10.652;2022-10-16T11:21:58;4.50;;;2.07;;
14394;SDS011;7282;49.204;10.652;2022-10-16T11:24:26;3.60;;;2.10;;
14394;SDS011;7282;49.204;10.652;2022-10-16T11:26:52;2.93;;;2.20;;
14394;SDS011;7282;49.204;10.652;2022-10-16T11:29:22;2.67;;;1.90;;
14394;SDS011;7282;49.204;10.652;2022-10-16T11:31:50;2.37;;;2.10;;
14394;SDS011;7282;49.204;10.652;2022-10-16T11:34:19;3.90;;;2.00;;
14394;SDS011;7282;49.204;10.652;2022-10-16T11:36:50;2.03;;;1.93;;
14394;SDS011;7282;49.204;10.652;2022-10-16T11:41:52;2.97;;;2.27;;
14394;SDS011;7282;49.204;10.652;2022-10-16T11:49:34;3.30;;;2.10;;
14394;SDS011;7282;49.204;10.652;2022-10-16T11:52:13;4.50;;;2.17;;
14394;SDS011;7282;49.204;10.652;2022-10-16T11:54:50;2.80;;;2.00;;
14394;SDS011;7282;49.204;10.652;2022-10-16T11:57:27;3.70;;;2.13;;
14394;SDS011;7282;49.204;10.652;2022-10-16T11:59:47;2.70;;;2.13;;
14394;SDS011;7282;49.204;10.652;2022-10-16T12:02:32;2.77;;;2.10;;
14394;SDS011;7282;49.204;10.652;2022-10-16T12:05:18;3.73;;;2.53;;
14394;SDS011;7282;49.204;10.652;2022-10-16T12:07:34;3.73;;;2.27;;
14394;SDS011;7282;49.204;10.652;2022-10-16T12:09:58;2.20;;;2.00;;
14394;SDS011;7282;49.204;10.652;2022-10-16T12:15:21;2.27;;;2.07;;
14394;SDS011;7282;49.204;10.652;2022-10-16T12:17:47;2.40;;;2.20;;
14394;SDS011;7282;49.204;10.652;2022-10-16T12:22:50;2.20;;;2.00;;
14394;SDS011;7282;49.204;10.652;2022-10-16T12:25:20;3.40;;;2.20;;
14394;SDS011;7282;49.204;10.652;2022-10-16T12:30:39;3.43;;;1.90;;
14394;SDS011;7282;49.204;10.652;2022-10-16T12:33:20;2.20;;;2.00;;
14394;SDS011;7282;49.204;10.652;2022-10-16T12:35:47;4.90;;;2.00;;
14394;SDS011;7282;49.204;10.652;2022-10-16T12:38:18;2.43;;;1.97;;
14394;SDS011;7282;49.204;10.652;2022-10-16T12:40:56;3.67;;;1.93;;
14394;SDS011;7282;49.204;10.652;2022-10-16T12:45:58;1.93;;;1.80;;
14394;SDS011;7282;49.204;10.652;2022-10-16T12:48:18;3.20;;;1.80;;
14394;SDS011;7282;49.204;10.652;2022-10-16T12:50:46;1.70;;;1.60;;
14394;SDS011;7282;49.204;10.652;2022-10-16T12:53:25;3.17;;;1.90;;
14394;SDS011;7282;49.204;10.652;2022-10-16T12:55:56;2.87;;;1.80;;
14394;SDS011;7282;49.204;10.652;2022-10-16T12:58:24;1.70;;;1.60;;
14394;SDS011;7282;49.204;10.652;2022-10-16T13:01:03;2.03;;;1.50;;
14394;SDS011;7282;49.204;10.652;2022-10-16T13:03:40;2.60;;;1.70;;
14394;SDS011;7282;49.204;10.652;2022-10-16T13:13:59;3.87;;;1.80;;
14394;SDS011;7282;49.204;10.652;2022-10-16T13:16:30;2.20;;;1.60;;
14394;SDS011;7282;49.204;10.652;2022-10-16T13:18:56;2.57;;;1.50;;
14394;SDS011;7282;49.204;10.652;2022-10-16T13:21:28;1.73;;;1.50;;
14394;SDS011;7282;49.204;10.652;2022-10-16T13:24:06;3.13;;;1.70;;
14394;SDS011;7282;49.204;10.652;2022-10-16T13:29:05;2.30;;;1.67;;
14394;SDS011;7282;49.204;10.652;2022-10-16T13:31:31;2.43;;;1.90;;
14394;SDS011;7282;49.204;10.652;2022-10-16T13:34:00;1.70;;;1.60;;
14394;SDS011;7282;49.204;10.652;2022-10-16T13:36:34;2.33;;;1.60;;
14394;SDS011;7282;49.204;10.652;2022-10-16T13:39:06;2.13;;;1.60;;
14394;SDS011;7282;49.204;10.652;2022-10-16T13:41:27;1.83;;;1.37;;
14394;SDS011;7282;49.204;10.652;2022-10-16T13:43:53;2.03;;;1.30;;
14394;SDS011;7282;49.204;10.652;2022-10-16T13:46:22;1.43;;;1.33;;
14394;SDS011;7282;49.204;10.652;2022-10-16T13:49:04;2.57;;;1.50;;
14394;SDS011;7282;49.204;10.652;2022-10-16T13:51:27;3.00;;;1.57;;
14394;SDS011;7282;49.204;10.652;2022-10-16T13:53:58;1.60;;;1.50;;
14394;SDS011;7282;49.204;10.652;2022-10-16T13:56:25;1.53;;;1.43;;
14394;SDS011;7282;49.204;10.652;2022-10-16T13:58:59;1.63;;;1.40;;
14394;SDS011;7282;49.204;10.652;2022-10-16T14:01:31;1.67;;;1.20;;
14394;SDS011;7282;49.204;10.652;2022-10-16T14:04:00;1.43;;;1.30;;
14394;SDS011;7282;49.204;10.652;2022-10-16T14:06:23;1.67;;;1.40;;
14394;SDS011;7282;49.204;10.652;2022-10-16T14:09:36;1.47;;;1.37;;
14394;SDS011;7282;49.204;10.652;2022-10-16T14:11:22;1.30;;;1.20;;
14394;SDS011;7282;49.204;10.652;2022-10-16T14:13:51;1.40;;;1.30;;
14394;SDS011;7282;49.204;10.652;2022-10-16T14:16:24;1.73;;;1.50;;
14394;SDS011;7282;49.204;10.652;2022-10-16T14:18:51;1.40;;;1.30;;
14394;SDS011;7282;49.204;10.652;2022-10-16T14:21:15;1.90;;;1.63;;
14394;SDS011;7282;49.204;10.652;2022-10-16T14:23:42;1.90;;;1.40;;
14394;SDS011;7282;49.204;10.652;2022-10-16T14:28:40;2.10;;;1.80;;
14394;SDS011;7282;49.204;10.652;2022-10-16T14:33:48;1.60;;;1.50;;
14394;SDS011;7282;49.204;10.652;2022-10-16T14:36:15;3.07;;;1.70;;
14394;SDS011;7282;49.204;10.652;2022-10-16T14:39:00;1.50;;;1.40;;
14394;SDS011;7282;49.204;10.652;2022-10-16T14:41:28;2.33;;;1.60;;
14394;SDS011;7282;49.204;10.652;2022-10-16T14:43:56;2.30;;;2.10;;
14394;SDS011;7282;49.204;10.652;2022-10-16T14:46:31;2.47;;;1.70;;
14394;SDS011;7282;49.204;10.652;2022-10-16T14:51:32;1.60;;;1.50;;
14394;SDS011;7282;49.204;10.652;2022-10-16T14:53:59;3.40;;;1.90;;
14394;SDS011;7282;49.204;10.652;2022-10-16T14:56:29;1.83;;;1.73;;
14394;SDS011;7282;49.204;10.652;2022-10-16T14:58:56;1.83;;;1.73;;
14394;SDS011;7282;49.204;10.652;2022-10-16T15:01:23;1.63;;;1.53;;
14394;SDS011;7282;49.204;10.652;2022-10-16T15:03:50;2.63;;;1.90;;
14394;SDS011;7282;49.204;10.652;2022-10-16T15:06:18;1.80;;;1.70;;
14394;SDS011;7282;49.204;10.652;2022-10-16T15:08:45;1.70;;;1.60;;
14394;SDS011;7282;49.204;10.652;2022-10-16T15:11:12;2.53;;;1.97;;
14394;SDS011;7282;49.204;10.652;2022-10-16T15:13:40;2.20;;;2.00;;
14394;SDS011;7282;49.204;10.652;2022-10-16T15:16:09;1.97;;;1.87;;
14394;SDS011;7282;49.204;10.652;2022-10-16T15:18:36;2.00;;;1.90;;
14394;SDS011;7282;49.204;10.652;2022-10-16T15:21:02;2.97;;;1.97;;
14394;SDS011;7282;49.204;10.652;2022-10-16T15:23:29;3.10;;;1.80;;
14394;SDS011;7282;49.204;10.652;2022-10-16T15:25:56;2.17;;;1.83;;
14394;SDS011;7282;49.204;10.652;2022-10-16T15:28:23;2.10;;;1.80;;
14394;SDS011;7282;49.204;10.652;2022-10-16T15:30:52;2.20;;;2.00;;
14394;SDS011;7282;49.204;10.652;2022-10-16T15:33:21;2.00;;;1.90;;
14394;SDS011;7282;49.204;10.652;2022-10-16T15:35:49;1.93;;;1.57;;
14394;SDS011;7282;49.204;10.652;2022-10-16T15:38:17;2.10;;;1.50;;
14394;SDS011;7282;49.204;10.652;2022-10-16T15:40:44;1.70;;;1.57;;
14394;SDS011;7282;49.204;10.652;2022-10-16T15:43:10;1.40;;;1.30;;
14394;SDS011;7282;49.204;10.652;2022-10-16T15:45:42;1.93;;;1.83;;
14394;SDS011;7282;49.204;10.652;2022-10-16T15:48:06;1.80;;;1.70;;
14394;SDS011;7282;49.204;10.652;2022-10-16T15:50:34;1.70;;;1.60;;
14394;SDS011;7282;49.204;10.652;2022-10-16T15:53:03;2.37;;;2.00;;
14394;SDS011;7282;49.204;10.652;2022-10-16T15:55:30;1.80;;;1.70;;
14394;SDS011;7282;49.204;10.652;2022-10-16T15:57:56;1.97;;;1.80;;
14394;SDS011;7282;49.204;10.652;2022-10-16T16:00:23;2.50;;;2.20;;
14394;SDS011;7282;49.204;10.652;2022-10-16T16:02:51;2.30;;;1.97;;